Stephenville Crossing, Canada
Current Conditions -  °F | °C
As of 2:00 PM on Saturday 25 Oct 2014 (Local Time) from CYJT Reporting Station
Overcast Overcast  
Wind Chill: 39°   Ceiling: 1800
Heat Index: 46°   Visibility: 15mi
Dew Point: 39°   Wind: 22mph
Humidity: 76%   Direction: 70°ENE
Pressure: 29.47"   Gusts: 29mph
Location:  48.52°N, 58.42°W
Report Text: CYJT 251600Z 07019G25KT 15SM OVC018 08/04 A2947 RMK SC8 SLP979
Loading
Personal Weather Stations






























Interactive Weather Map
Tropical Storm Tracking
New forecast layout! Learn more

10-Day Weather Forecast

Advertisements
Track Severe Weather on mobile